createdAt,value
2023-02-25T00:02:10.300Z,-9.27
2023-02-25T00:04:41.292Z,-9.33
2023-02-25T00:07:10.353Z,-9.35
2023-02-25T00:09:39.206Z,-9.46
2023-02-25T00:12:08.379Z,-9.53
2023-02-25T00:14:37.206Z,-9.47
2023-02-25T00:17:06.087Z,-9.51
2023-02-25T00:19:34.976Z,-9.46
2023-02-25T00:22:03.824Z,-9.40
2023-02-25T00:24:32.711Z,-9.42
2023-02-25T00:27:02.086Z,-9.44
2023-02-25T00:29:31.277Z,-9.46
2023-02-25T00:32:00.379Z,-9.44
2023-02-25T00:34:29.342Z,-9.40
2023-02-25T00:36:58.701Z,-9.37
2023-02-25T00:39:42.483Z,-9.40
2023-02-25T00:42:16.705Z,-9.42
2023-02-25T00:44:47.768Z,-9.30
2023-02-25T00:47:19.085Z,-9.29
2023-02-25T00:49:52.740Z,-9.25
2023-02-25T00:52:21.720Z,-9.10
2023-02-25T00:54:51.058Z,-8.99
2023-02-25T00:57:19.925Z,-8.74
2023-02-25T00:59:48.866Z,-8.56
2023-02-25T01:02:19.143Z,-8.38
2023-02-25T01:04:48.232Z,-8.26
2023-02-25T01:07:17.507Z,-8.09
2023-02-25T01:09:46.281Z,-7.81
2023-02-25T01:12:15.249Z,-7.48
2023-02-25T01:14:44.716Z,-7.23
2023-02-25T01:17:13.552Z,-7.05
2023-02-25T01:19:42.383Z,-6.97
2023-02-25T01:22:11.208Z,-6.69
2023-02-25T01:24:40.168Z,-6.44
2023-02-25T01:27:09.254Z,-6.16
2023-02-25T01:29:42.329Z,-5.87
2023-02-25T01:32:14.470Z,-5.71
2023-02-25T01:34:43.576Z,-5.56
2023-02-25T01:37:12.440Z,-5.51
2023-02-25T01:39:41.942Z,-5.26
2023-02-25T01:42:18.509Z,-4.64
2023-02-25T01:45:25.804Z,-3.87
2023-02-25T01:47:57.665Z,-3.02
2023-02-25T01:50:32.386Z,-2.14
2023-02-25T01:53:03.410Z,-1.46
2023-02-25T01:55:33.168Z,-1.56
2023-02-25T01:58:02.860Z,-1.28
2023-02-25T02:00:33.992Z,-0.86
2023-02-25T02:03:03.799Z,-0.60
2023-02-25T02:05:48.880Z,-0.66
2023-02-25T02:08:17.950Z,-0.42
2023-02-25T02:10:47.412Z,-0.04
2023-02-25T02:13:17.109Z,0.49
2023-02-25T02:16:15.787Z,1.10
2023-02-25T02:18:57.412Z,1.09
2023-02-25T02:22:08.380Z,0.94
2023-02-25T02:25:01.644Z,0.87
2023-02-25T02:27:41.054Z,1.00
2023-02-25T02:30:23.897Z,1.46
2023-02-25T02:33:10.951Z,1.52
2023-02-25T02:35:44.661Z,1.62
2023-02-25T02:38:25.503Z,1.85
2023-02-25T02:40:57.454Z,1.86
2023-02-25T02:43:51.263Z,1.56
2023-02-25T02:46:28.638Z,1.34
2023-02-25T02:49:18.537Z,1.70
2023-02-25T02:51:57.685Z,2.51
2023-02-25T02:54:33.130Z,2.86
2023-02-25T02:57:04.327Z,2.90
2023-02-25T02:59:46.611Z,3.88
2023-02-25T03:02:23.364Z,4.39
2023-02-25T03:04:54.411Z,4.97
2023-02-25T03:07:24.131Z,4.73
2023-02-25T03:09:58.923Z,4.47
2023-02-25T03:12:34.416Z,4.17
2023-02-25T03:15:03.298Z,4.52
2023-02-25T03:17:37.500Z,4.71
2023-02-25T03:20:13.947Z,4.99
2023-02-25T03:22:46.057Z,5.61
2023-02-25T03:25:22.938Z,5.68
2023-02-25T03:27:55.897Z,5.81
2023-02-25T03:30:41.662Z,5.79
2023-02-25T03:33:26.327Z,6.01
2023-02-25T03:35:57.354Z,6.35
2023-02-25T03:38:30.160Z,6.80
2023-02-25T03:41:02.517Z,6.88
2023-02-25T03:43:53.963Z,6.84
2023-02-25T03:46:24.078Z,6.74
2023-02-25T03:48:55.205Z,6.79
2023-02-25T03:51:31.618Z,7.00
2023-02-25T03:54:00.826Z,7.07
2023-02-25T03:56:43.546Z,7.03
2023-02-25T03:59:12.720Z,7.03
2023-02-25T04:01:45.699Z,6.54
2023-02-25T04:04:15.042Z,6.14
2023-02-25T04:06:43.973Z,6.55
2023-02-25T04:09:13.579Z,7.61
2023-02-25T04:11:43.418Z,7.77
2023-02-25T04:14:12.288Z,7.71
2023-02-25T04:16:41.104Z,8.09
2023-02-25T04:19:09.967Z,7.80
2023-02-25T04:21:40.218Z,7.19
2023-02-25T04:24:09.570Z,6.76
2023-02-25T04:26:38.423Z,6.77
2023-02-25T04:29:07.561Z,6.62
2023-02-25T04:31:36.660Z,6.83
2023-02-25T04:34:05.559Z,6.81
2023-02-25T04:36:36.911Z,6.16
2023-02-25T04:39:06.585Z,5.37
2023-02-25T04:41:37.042Z,4.73
2023-02-25T04:44:07.650Z,4.55
2023-02-25T04:46:41.673Z,4.57
2023-02-25T04:49:11.354Z,4.72
2023-02-25T04:51:40.456Z,4.29
2023-02-25T04:54:09.403Z,3.76
2023-02-25T04:56:39.449Z,3.24
2023-02-25T04:59:08.528Z,2.83
2023-02-25T05:01:39.429Z,2.24
2023-02-25T05:04:08.582Z,1.63
2023-02-25T05:06:37.473Z,1.54
2023-02-25T05:09:07.658Z,1.60
2023-02-25T05:11:37.555Z,1.78
2023-02-25T05:14:06.401Z,1.89
2023-02-25T05:16:35.311Z,2.00
2023-02-25T05:19:04.589Z,2.01
2023-02-25T05:21:34.085Z,2.11
2023-02-25T05:24:02.967Z,2.09
2023-02-25T05:26:31.830Z,2.07
2023-02-25T05:29:00.703Z,2.00
2023-02-25T05:31:29.627Z,2.12
2023-02-25T05:33:58.633Z,2.10
2023-02-25T05:36:28.367Z,1.85
2023-02-25T05:39:03.616Z,1.75
2023-02-25T05:41:32.838Z,1.59
2023-02-25T05:44:01.834Z,1.32
2023-02-25T05:46:31.334Z,1.12
2023-02-25T05:49:00.260Z,1.00
2023-02-25T05:51:29.107Z,0.76
2023-02-25T05:53:58.092Z,0.28
2023-02-25T05:56:30.247Z,0.45
2023-02-25T05:59:01.169Z,0.31
2023-02-25T06:01:32.294Z,0.17
2023-02-25T06:04:01.872Z,-0.02
2023-02-25T06:06:33.620Z,-0.23
2023-02-25T06:09:02.577Z,-0.29
2023-02-25T06:11:31.795Z,-0.46
2023-02-25T06:14:00.981Z,-0.70
2023-02-25T06:16:33.390Z,-0.86
2023-02-25T06:19:03.121Z,-1.04
2023-02-25T06:21:32.127Z,-1.11
2023-02-25T06:24:05.298Z,-1.33
2023-02-25T06:26:35.972Z,-1.33
2023-02-25T06:29:04.822Z,-1.44
2023-02-25T06:31:35.233Z,-1.56
2023-02-25T06:34:04.436Z,-1.42
2023-02-25T06:36:33.451Z,-1.49
2023-02-25T06:39:02.555Z,-1.39
2023-02-25T06:41:31.426Z,-1.28
2023-02-25T06:44:00.349Z,-1.10
2023-02-25T06:46:29.799Z,-1.10
2023-02-25T06:48:58.783Z,-0.78
2023-02-25T06:51:27.998Z,-0.46
2023-02-25T06:53:56.937Z,-0.31
2023-02-25T06:56:27.092Z,-0.08
2023-02-25T06:58:57.321Z,0.09
2023-02-25T07:01:27.967Z,0.29
2023-02-25T07:03:57.281Z,0.62
2023-02-25T07:06:26.496Z,0.92
2023-02-25T07:08:55.414Z,1.11
2023-02-25T07:11:31.357Z,1.41
2023-02-25T07:14:00.288Z,1.65
2023-02-25T07:16:30.590Z,1.96
2023-02-25T07:19:02.882Z,2.35
2023-02-25T07:21:32.098Z,2.83
2023-02-25T07:24:01.098Z,3.19
2023-02-25T07:26:30.249Z,3.53
2023-02-25T07:29:00.559Z,3.67
2023-02-25T07:31:29.944Z,3.50
2023-02-25T07:34:03.960Z,3.26
2023-02-25T07:36:38.181Z,2.94
2023-02-25T07:39:09.566Z,2.63
2023-02-25T07:41:39.101Z,2.38
2023-02-25T07:44:08.391Z,2.16
2023-02-25T07:46:37.705Z,1.88
2023-02-25T07:49:06.615Z,1.53
2023-02-25T07:51:35.714Z,1.12
2023-02-25T07:54:04.890Z,0.83
2023-02-25T07:56:33.846Z,0.84
2023-02-25T07:59:02.756Z,0.71
2023-02-25T08:01:35.448Z,0.74
2023-02-25T08:04:06.640Z,0.77
2023-02-25T08:06:40.137Z,0.80
2023-02-25T08:09:12.862Z,0.80
2023-02-25T08:11:43.323Z,0.91
2023-02-25T08:14:12.884Z,0.85
2023-02-25T08:16:41.736Z,0.88
2023-02-25T08:19:10.596Z,1.04
2023-02-25T08:21:41.063Z,1.06
2023-02-25T08:24:10.151Z,1.22
2023-02-25T08:26:39.757Z,1.33
2023-02-25T08:29:08.649Z,1.56
2023-02-25T08:31:37.644Z,1.59
2023-02-25T08:34:06.739Z,1.36
2023-02-25T08:36:36.833Z,1.15
2023-02-25T08:39:06.012Z,1.13
2023-02-25T08:41:34.953Z,1.15
2023-02-25T08:44:04.828Z,1.28
2023-02-25T08:46:38.267Z,1.36
2023-02-25T08:49:07.661Z,1.55
2023-02-25T08:51:36.534Z,1.76
2023-02-25T08:54:11.822Z,1.70
2023-02-25T08:56:48.113Z,1.69
2023-02-25T08:59:17.805Z,1.62
2023-02-25T09:01:47.549Z,1.36
2023-02-25T09:04:23.493Z,1.00
2023-02-25T09:06:54.696Z,0.61
2023-02-25T09:09:23.728Z,0.43
2023-02-25T09:11:53.815Z,0.09
2023-02-25T09:14:23.575Z,-0.04
2023-02-25T09:16:52.503Z,-0.13
2023-02-25T09:19:21.573Z,-0.27
2023-02-25T09:21:50.849Z,-0.42
2023-02-25T09:24:19.881Z,-0.59
2023-02-25T09:26:48.977Z,-0.62
2023-02-25T09:29:17.910Z,-0.55
2023-02-25T09:31:46.982Z,-0.56
2023-02-25T09:34:15.952Z,-0.54
2023-02-25T09:36:45.302Z,-0.55
2023-02-25T09:39:14.308Z,-0.54
2023-02-25T09:42:01.774Z,-0.58
2023-02-25T09:44:37.058Z,-0.63
2023-02-25T09:47:21.386Z,-0.74
2023-02-25T09:50:06.949Z,-0.86
2023-02-25T09:53:05.798Z,-0.98
2023-02-25T09:55:34.596Z,-1.04
2023-02-25T09:58:12.527Z,-1.07
2023-02-25T10:00:46.639Z,-1.13
2023-02-25T10:03:40.294Z,-1.14
2023-02-25T10:06:37.536Z,-1.20
2023-02-25T10:09:21.447Z,-1.36
2023-02-25T10:12:07.265Z,-1.44
2023-02-25T10:14:50.435Z,-1.48
2023-02-25T10:17:43.951Z,-1.47
2023-02-25T10:20:40.181Z,-1.43
2023-02-25T10:23:39.947Z,-1.39
2023-02-25T10:26:23.192Z,-1.33
2023-02-25T10:29:01.419Z,-1.29
2023-02-25T10:31:32.619Z,-1.28
2023-02-25T10:34:26.527Z,-1.25
2023-02-25T10:36:58.828Z,-1.22
2023-02-25T10:39:29.367Z,-1.20
2023-02-25T10:41:58.858Z,-1.21
2023-02-25T10:44:27.749Z,-1.14
2023-02-25T10:47:07.737Z,-1.16
2023-02-25T10:49:38.969Z,-1.11
2023-02-25T10:52:20.615Z,-1.20
2023-02-25T10:54:52.270Z,-1.22
2023-02-25T10:57:29.218Z,-1.29
2023-02-25T11:00:02.391Z,-1.36
2023-02-25T11:02:39.920Z,-1.44
2023-02-25T11:05:33.455Z,-1.50
2023-02-25T11:08:03.025Z,-1.61
2023-02-25T11:10:31.949Z,-1.55
2023-02-25T11:13:04.109Z,-1.55
2023-02-25T11:15:45.164Z,-1.54
2023-02-25T11:18:30.452Z,-1.47
2023-02-25T11:21:03.781Z,-1.42
2023-02-25T11:23:40.911Z,-1.39
2023-02-25T11:26:15.538Z,-1.39
2023-02-25T11:28:50.500Z,-1.39
2023-02-25T11:31:19.704Z,-1.33
2023-02-25T11:34:01.804Z,-1.33
2023-02-25T11:36:36.845Z,-1.35
2023-02-25T11:39:18.856Z,-1.38
2023-02-25T11:41:50.281Z,-1.37
2023-02-25T11:44:24.416Z,-1.33
2023-02-25T11:47:23.469Z,-1.30
2023-02-25T11:50:20.618Z,-1.26
2023-02-25T11:53:04.354Z,-1.24
2023-02-25T11:55:51.568Z,-1.25
2023-02-25T11:58:42.068Z,-1.28
2023-02-25T12:01:29.550Z,-1.37
2023-02-25T12:04:26.809Z,-1.42
2023-02-25T12:07:25.481Z,-1.48
2023-02-25T12:10:25.767Z,-1.52
2023-02-25T12:13:25.159Z,-1.59
2023-02-25T12:16:12.612Z,-1.63
2023-02-25T12:19:04.396Z,-1.65
2023-02-25T12:22:13.429Z,-1.64
2023-02-25T12:24:45.078Z,-1.56
2023-02-25T12:27:37.966Z,-1.52
2023-02-25T12:30:39.360Z,-1.52
2023-02-25T12:33:34.397Z,-1.48
2023-02-25T12:36:18.968Z,-1.45
2023-02-25T12:39:19.581Z,-1.45
2023-02-25T12:42:01.148Z,-1.43
2023-02-25T12:45:03.934Z,-1.41
2023-02-25T12:48:05.935Z,-1.38
2023-02-25T12:50:56.113Z,-1.41
2023-02-25T12:53:43.195Z,-1.42
2023-02-25T12:56:37.280Z,-1.47
2023-02-25T12:59:30.699Z,-1.50
2023-02-25T13:02:19.468Z,-1.54
2023-02-25T13:05:08.677Z,-1.57
2023-02-25T13:07:58.740Z,-1.61
2023-02-25T13:10:38.665Z,-1.63
2023-02-25T13:13:10.636Z,-1.64
2023-02-25T13:16:13.892Z,-1.65
2023-02-25T13:19:19.758Z,-1.64
2023-02-25T13:22:01.101Z,-1.64
2023-02-25T13:24:41.882Z,-1.61
2023-02-25T13:27:42.265Z,-1.60
2023-02-25T13:30:42.095Z,-1.62
2023-02-25T13:33:38.721Z,-1.62
2023-02-25T13:36:13.334Z,-1.61
2023-02-25T13:38:47.809Z,-1.61
2023-02-25T13:41:22.707Z,-1.64
2023-02-25T13:43:57.560Z,-1.67
2023-02-25T13:46:43.877Z,-1.71
2023-02-25T13:49:37.112Z,-1.72
2023-02-25T13:52:28.490Z,-1.72
2023-02-25T13:55:16.468Z,-1.70
2023-02-25T13:58:15.264Z,-1.69
2023-02-25T14:00:56.710Z,-1.67
2023-02-25T14:04:02.543Z,-1.60
2023-02-25T14:10:13.288Z,-1.50
2023-02-25T14:13:13.079Z,-1.47
2023-02-25T14:16:08.376Z,-1.49
2023-02-25T14:18:37.215Z,-1.54
2023-02-25T14:21:34.653Z,-1.60
2023-02-25T14:24:24.951Z,-1.69
2023-02-25T14:27:25.944Z,-1.85
2023-02-25T14:30:12.708Z,-1.89
2023-02-25T14:32:41.312Z,-1.87
2023-02-25T14:36:02.578Z,-1.87
2023-02-25T14:38:50.772Z,-1.92
2023-02-25T14:41:53.589Z,-2.00
2023-02-25T14:44:32.984Z,-2.00
2023-02-25T14:47:15.366Z,-2.04
2023-02-25T14:50:03.025Z,-2.04
2023-02-25T14:52:56.039Z,-2.06
2023-02-25T14:55:50.573Z,-2.05
2023-02-25T14:58:39.591Z,-2.13
2023-02-25T15:01:34.905Z,-2.06
2023-02-25T15:04:36.288Z,-2.05
2023-02-25T15:07:17.310Z,-2.05
2023-02-25T15:10:08.482Z,-2.05
2023-02-25T15:12:53.312Z,-2.07
2023-02-25T15:15:41.121Z,-2.04
2023-02-25T15:18:22.586Z,-2.03
2023-02-25T15:20:51.866Z,-2.01
2023-02-25T15:23:21.727Z,-1.97
2023-02-25T15:26:22.452Z,-1.93
2023-02-25T15:28:53.452Z,-1.93
2023-02-25T15:31:31.756Z,-1.91
2023-02-25T15:34:22.111Z,-1.89
2023-02-25T15:37:10.773Z,-1.90
2023-02-25T15:39:42.873Z,-1.87
2023-02-25T15:42:13.458Z,-1.83
2023-02-25T15:44:43.855Z,-1.79
2023-02-25T15:47:23.297Z,-1.75
2023-02-25T15:49:53.116Z,-1.74
2023-02-25T15:52:55.045Z,-1.64
2023-02-25T15:55:35.659Z,-1.58
2023-02-25T15:58:24.492Z,-1.49
2023-02-25T16:00:58.744Z,-1.42
2023-02-25T16:03:47.997Z,-1.34
2023-02-25T16:06:30.562Z,-1.27
2023-02-25T16:09:05.939Z,-1.22
2023-02-25T16:11:49.883Z,-1.16
2023-02-25T16:14:25.684Z,-1.12
2023-02-25T16:17:26.292Z,-1.07
2023-02-25T16:19:59.792Z,-1.03
2023-02-25T16:22:29.915Z,-1.02
2023-02-25T16:25:02.400Z,-0.95
2023-02-25T16:27:50.968Z,-0.92
2023-02-25T16:30:45.610Z,-0.90
2023-02-25T16:33:45.361Z,-0.89
2023-02-25T16:36:22.687Z,-0.92
2023-02-25T16:39:17.435Z,-0.91
2023-02-25T16:41:46.764Z,-0.95
2023-02-25T16:44:30.704Z,-0.92
2023-02-25T16:46:59.985Z,-0.91
2023-02-25T16:49:38.865Z,-0.90
2023-02-25T16:52:08.860Z,-0.90
2023-02-25T16:54:40.705Z,-0.90
2023-02-25T16:57:27.042Z,-0.87
2023-02-25T17:00:23.737Z,-0.87
2023-02-25T17:02:59.328Z,-0.99
2023-02-25T17:05:37.885Z,-0.86
2023-02-25T17:08:15.129Z,-0.87
2023-02-25T17:10:47.829Z,-0.88
2023-02-25T17:13:30.100Z,-0.92
2023-02-25T17:16:04.887Z,-0.87
2023-02-25T17:18:43.038Z,-0.90
2023-02-25T17:21:24.066Z,-0.88
2023-02-25T17:23:54.241Z,-0.89
2023-02-25T17:26:23.679Z,-0.86
2023-02-25T17:28:56.316Z,-0.88
2023-02-25T17:31:27.961Z,-0.89
2023-02-25T17:34:04.685Z,-0.92
2023-02-25T17:36:39.918Z,-0.90
2023-02-25T17:39:15.022Z,-0.92
2023-02-25T17:41:44.660Z,-0.95
2023-02-25T17:44:43.169Z,-0.96
2023-02-25T17:47:19.692Z,-0.98
2023-02-25T17:49:49.443Z,-1.02
2023-02-25T17:52:25.218Z,-1.02
2023-02-25T17:55:21.772Z,-1.02
2023-02-25T17:57:50.339Z,-1.07
2023-02-25T18:00:25.207Z,-1.10
2023-02-25T18:03:12.924Z,-1.13
2023-02-25T18:06:00.273Z,-1.15
2023-02-25T18:08:51.524Z,-1.16
2023-02-25T18:11:33.606Z,-1.15
2023-02-25T18:14:34.766Z,-1.13
2023-02-25T18:17:23.205Z,-1.17
2023-02-25T18:19:52.948Z,-1.22
2023-02-25T18:22:31.939Z,-1.23
2023-02-25T18:25:04.287Z,-1.23
2023-02-25T18:27:38.209Z,-1.27
2023-02-25T18:30:27.813Z,-1.29
2023-02-25T18:32:59.854Z,-1.32
2023-02-25T18:35:30.536Z,-1.34
2023-02-25T18:38:01.055Z,-1.39
2023-02-25T18:40:36.977Z,-1.40
2023-02-25T18:43:06.214Z,-1.43
2023-02-25T18:45:35.576Z,-1.45
2023-02-25T18:48:04.494Z,-1.48
2023-02-25T18:50:34.595Z,-1.52
2023-02-25T18:53:03.715Z,-1.56
2023-02-25T18:55:34.728Z,-1.63
2023-02-25T18:58:05.392Z,-1.64
2023-02-25T19:00:36.477Z,-1.66
2023-02-25T19:03:08.630Z,-1.70
2023-02-25T19:05:38.484Z,-1.67
2023-02-25T19:08:13.834Z,-1.70
2023-02-25T19:10:44.685Z,-1.72
2023-02-25T19:13:20.310Z,-1.81
2023-02-25T19:15:49.263Z,-1.84
2023-02-25T19:18:18.129Z,-1.85
2023-02-25T19:20:47.039Z,-1.88
2023-02-25T19:23:18.151Z,-1.92
2023-02-25T19:25:49.118Z,-1.94
2023-02-25T19:28:17.903Z,-1.94
2023-02-25T19:30:46.771Z,-1.96
2023-02-25T19:33:16.286Z,-1.97
2023-02-25T19:35:45.280Z,-1.96
2023-02-25T19:38:17.338Z,-1.96
2023-02-25T19:40:47.471Z,-1.91
2023-02-25T19:43:17.599Z,-1.91
2023-02-25T19:45:47.754Z,-1.84
2023-02-25T19:48:16.556Z,-1.88
2023-02-25T19:50:45.362Z,-1.86
2023-02-25T19:53:14.116Z,-1.81
2023-02-25T19:55:44.561Z,-1.81
2023-02-25T19:58:13.314Z,-1.82
2023-02-25T20:00:46.723Z,-1.82
2023-02-25T20:03:16.288Z,-1.80
2023-02-25T20:05:45.452Z,-1.81
2023-02-25T20:08:14.285Z,-1.77
2023-02-25T20:10:44.404Z,-1.80
2023-02-25T20:13:13.283Z,-1.80
2023-02-25T20:15:42.202Z,-1.73
2023-02-25T20:18:11.009Z,-1.73
2023-02-25T20:20:42.632Z,-1.75
2023-02-25T20:23:12.100Z,-1.70
2023-02-25T20:25:40.906Z,-1.71
2023-02-25T20:28:09.728Z,-1.69
2023-02-25T20:30:39.306Z,-1.67
2023-02-25T20:33:08.064Z,-1.66
2023-02-25T20:35:37.159Z,-1.67
2023-02-25T20:38:05.846Z,-1.68
2023-02-25T20:40:34.806Z,-1.71
2023-02-25T20:43:03.862Z,-1.73
2023-02-25T20:45:33.186Z,-1.69
2023-02-25T20:48:02.275Z,-1.75
2023-02-25T20:50:31.804Z,-1.77
2023-02-25T20:53:00.846Z,-1.81
2023-02-25T20:55:29.928Z,-1.88
2023-02-25T20:57:58.912Z,-1.94
2023-02-25T21:00:28.602Z,-1.96
2023-02-25T21:02:57.773Z,-1.99
2023-02-25T21:05:26.577Z,-2.04
2023-02-25T21:07:55.419Z,-2.01
2023-02-25T21:10:25.363Z,-2.01
2023-02-25T21:12:54.163Z,-2.04
2023-02-25T21:15:22.931Z,-2.03
2023-02-25T21:17:51.749Z,-2.07
2023-02-25T21:20:20.621Z,-2.03
2023-02-25T21:22:49.556Z,-2.05
2023-02-25T21:25:18.505Z,-2.06
2023-02-25T21:27:47.420Z,-2.05
2023-02-25T21:30:16.884Z,-2.09
2023-02-25T21:32:45.725Z,-2.14
2023-02-25T21:35:14.412Z,-2.17
2023-02-25T21:37:43.431Z,-2.16
2023-02-25T21:40:13.018Z,-2.19
2023-02-25T21:42:41.809Z,-2.28
2023-02-25T21:45:11.181Z,-2.34
2023-02-25T21:47:39.978Z,-2.43
2023-02-25T21:50:10.144Z,-2.47
2023-02-25T21:52:38.972Z,-2.55
2023-02-25T21:55:08.578Z,-2.65
2023-02-25T21:57:38.984Z,-2.69
2023-02-25T22:00:11.752Z,-2.70
2023-02-25T22:02:43.543Z,-2.74
2023-02-25T22:05:12.485Z,-2.79
2023-02-25T22:07:41.286Z,-2.82
2023-02-25T22:10:11.364Z,-2.89
2023-02-25T22:12:40.729Z,-2.89
2023-02-25T22:15:10.440Z,-2.89
2023-02-25T22:17:39.428Z,-2.86
2023-02-25T22:20:09.113Z,-2.86
2023-02-25T22:22:38.647Z,-2.83
2023-02-25T22:25:07.688Z,-2.84
2023-02-25T22:27:36.612Z,-2.90
2023-02-25T22:30:05.936Z,-2.88
2023-02-25T22:32:38.216Z,-2.94
2023-02-25T22:35:08.424Z,-2.89
2023-02-25T22:37:37.239Z,-2.93
2023-02-25T22:40:06.820Z,-2.86
2023-02-25T22:42:35.644Z,-2.87
2023-02-25T22:45:04.749Z,-2.87
2023-02-25T22:47:33.552Z,-2.95
2023-02-25T22:50:02.399Z,-2.93
2023-02-25T22:52:31.756Z,-2.96
2023-02-25T22:55:00.544Z,-3.01
2023-02-25T22:57:29.363Z,-3.08
2023-02-25T22:59:58.295Z,-3.08
2023-02-25T23:02:27.944Z,-3.10
2023-02-25T23:04:56.978Z,-3.18
2023-02-25T23:07:25.853Z,-3.20
2023-02-25T23:09:54.648Z,-3.17
2023-02-25T23:12:23.407Z,-3.19
2023-02-25T23:14:52.165Z,-3.21
2023-02-25T23:17:20.977Z,-3.23
2023-02-25T23:19:50.125Z,-3.23
2023-02-25T23:22:25.669Z,-3.20
2023-02-25T23:24:54.522Z,-3.19
2023-02-25T23:27:23.514Z,-3.25
2023-02-25T23:29:52.588Z,-3.24
2023-02-25T23:32:21.520Z,-3.30
2023-02-25T23:34:50.394Z,-3.33
2023-02-25T23:37:19.379Z,-3.37
2023-02-25T23:39:48.224Z,-3.41
2023-02-25T23:42:17.131Z,-3.48
2023-02-25T23:44:45.921Z,-3.53
2023-02-25T23:47:14.927Z,-3.60
2023-02-25T23:49:43.752Z,-3.68
2023-02-25T23:52:12.634Z,-3.76
2023-02-25T23:54:41.536Z,-3.83
2023-02-25T23:57:10.605Z,-3.87
2023-02-25T23:59:39.473Z,-3.88
